createdAt,value
2022-09-07T08:17:54.746Z,106.9
2022-09-07T08:22:24.313Z,108.7
2022-09-07T08:24:39.077Z,109.8
2022-09-07T08:26:53.992Z,110.7
2022-09-07T08:29:08.808Z,112
2022-09-07T08:33:38.588Z,113.9
2022-09-07T08:35:53.635Z,114.8
2022-09-07T08:40:22.966Z,116.6
2022-09-07T08:42:37.725Z,117.3
2022-09-07T08:44:52.708Z,118.3
2022-09-07T08:47:07.526Z,119
2022-09-07T08:49:22.394Z,119.4
2022-09-07T08:53:52.115Z,121.1
2022-09-07T08:56:06.915Z,121.8
2022-09-07T08:58:50.373Z,122.9
2022-09-07T09:04:15.182Z,125.2
2022-09-07T09:06:49.712Z,125.6
2022-09-07T09:15:49.780Z,127.9
2022-09-07T09:18:04.622Z,127.9
2022-09-07T09:20:19.702Z,127.9
2022-09-07T09:22:34.556Z,127.9
2022-09-07T09:24:49.439Z,127.9
2022-09-07T09:27:04.449Z,127.9
2022-09-07T09:31:34.494Z,127.9
2022-09-07T09:33:49.289Z,127.9
2022-09-07T09:36:04.383Z,127.9
2022-09-07T09:38:19.264Z,127.9
2022-09-07T09:40:34.346Z,127.9
2022-09-07T09:42:49.174Z,127.9
2022-09-07T09:45:04.498Z,127.9
2022-09-07T09:48:17.548Z,127.9
2022-09-07T09:52:36.480Z,127.9
2022-09-07T09:57:21.454Z,127.9
2022-09-07T10:06:53.018Z,127.9
2022-09-07T10:09:07.772Z,127.9
2022-09-07T10:11:22.870Z,127.9
2022-09-07T10:14:07.729Z,127.9
2022-09-07T10:16:22.574Z,127.9
2022-09-07T10:20:52.210Z,127.9
2022-09-07T10:27:36.643Z,127.9
2022-09-07T10:30:09.202Z,127.9
2022-09-07T10:34:56.686Z,127.9
2022-09-07T10:37:11.525Z,127.9
2022-09-07T10:39:26.414Z,127.9
2022-09-07T10:41:41.217Z,127.9
2022-09-07T10:44:23.787Z,127.9
2022-09-07T10:46:57.223Z,127.9
2022-09-07T10:49:11.096Z,127.9
2022-09-07T10:51:54.049Z,127.9
2022-09-07T10:54:43.660Z,127.9
2022-09-07T10:56:58.569Z,127.9
2022-09-07T11:02:04.457Z,127.9
2022-09-07T11:09:33.910Z,127.9
2022-09-07T11:12:06.210Z,127.9
2022-09-07T11:14:34.189Z,127.9
2022-09-07T11:17:07.007Z,127.9
2022-09-07T11:19:39.374Z,127.9
2022-09-07T11:22:12.235Z,127.9
2022-09-07T11:24:27.086Z,127.9
2022-09-07T11:26:59.588Z,127.9
2022-09-07T11:29:31.794Z,127.9
2022-09-07T11:38:57.114Z,127.9
2022-09-07T11:41:11.229Z,127.9
2022-09-07T11:45:58.946Z,127.9
2022-09-07T11:48:13.532Z,127.9
2022-09-07T11:52:43.252Z,127.9
2022-09-07T11:54:58.115Z,127.9
2022-09-07T11:57:12.918Z,127.9
2022-09-07T11:59:27.823Z,127.9
2022-09-07T12:01:42.662Z,127.9
2022-09-07T12:08:36.249Z,127.9
2022-09-07T12:10:51.136Z,127.9
2022-09-07T12:13:06.125Z,127.9
2022-09-07T12:15:20.829Z,127.9
2022-09-07T12:17:35.506Z,127.9
2022-09-07T12:19:50.392Z,127.9
2022-09-07T12:22:05.544Z,127.9
2022-09-07T12:24:20.143Z,127.9
2022-09-07T12:26:34.967Z,127.9
2022-09-07T12:31:04.817Z,127.9
2022-09-07T12:33:56.400Z,127.9
2022-09-07T12:36:11.247Z,127.9
2022-09-07T12:38:26.097Z,127.9
2022-09-07T12:43:13.843Z,127.9
2022-09-07T12:45:28.402Z,127.9
2022-09-07T12:49:58.099Z,127.9
2022-09-07T12:52:31.405Z,127.9
2022-09-07T12:57:49.181Z,127.9
2022-09-07T13:00:03.981Z,127.9
2022-09-07T13:02:18.880Z,127.9
2022-09-07T13:04:52.553Z,127.9
2022-09-07T13:07:34.436Z,127.9
2022-09-07T13:09:49.227Z,127.9
2022-09-07T13:12:04.212Z,127.9
2022-09-07T13:14:54.659Z,127.9
2022-09-07T13:17:27.496Z,127.9
2022-09-07T13:19:42.312Z,127.9
2022-09-07T13:26:51.147Z,127.9
2022-09-07T13:29:03.050Z,127.9
2022-09-07T13:31:17.931Z,127.9
2022-09-07T13:33:50.433Z,127.9
2022-09-07T13:36:05.145Z,127.9
2022-09-07T13:40:34.916Z,127.9
2022-09-07T13:45:04.793Z,127.9
2022-09-07T13:47:19.431Z,127.9
2022-09-07T13:49:34.293Z,127.9
2022-09-07T13:51:49.102Z,127.9
2022-09-07T13:56:18.764Z,127.9
2022-09-07T13:58:33.791Z,127.9
2022-09-07T14:00:48.703Z,127.9
2022-09-07T14:05:18.244Z,127.9
2022-09-07T14:07:32.890Z,127.9
2022-09-07T14:09:47.710Z,127.9
2022-09-07T14:12:02.717Z,127.9
2022-09-07T14:14:17.547Z,127.9
2022-09-07T14:18:47.094Z,127.9
2022-09-07T14:23:17.477Z,127.9
2022-09-07T14:28:18.887Z,127.9
2022-09-07T14:30:33.747Z,127.9
2022-09-07T14:32:48.566Z,127.9
2022-09-07T14:37:33.061Z,127.9
2022-09-07T14:42:36.180Z,127.9
2022-09-07T14:44:51.189Z,127.9
2022-09-07T14:47:05.751Z,127.9
2022-09-07T14:51:48.317Z,127.9
2022-09-07T14:56:52.128Z,127.9
2022-09-07T14:59:07.003Z,127.9
2022-09-07T15:05:12.773Z,127.9
2022-09-07T15:08:03.758Z,127.9
2022-09-07T15:12:53.627Z,127.9
2022-09-07T15:15:10.388Z,127.9
2022-09-07T15:27:19.762Z,127.9
2022-09-07T15:30:11.498Z,127.9
2022-09-07T15:35:42.066Z,126.1
2022-09-07T15:41:38.594Z,123.8
2022-09-07T15:44:28.368Z,122.6
